createdAt,value
2022-09-11T01:06:21.432Z,34.43
2022-09-11T01:08:53.057Z,28.43
2022-09-11T01:11:32.189Z,31.23
2022-09-11T01:14:06.063Z,32.13
2022-09-11T01:16:39.057Z,32.73
2022-09-11T01:22:00.631Z,31.97
2022-09-11T01:24:54.172Z,35.07
2022-09-11T01:27:46.997Z,40.40
2022-09-11T01:30:19.279Z,31.87
2022-09-11T01:33:13.045Z,35.57
2022-09-11T01:35:52.948Z,34.60
2022-09-11T01:38:29.188Z,33.90
2022-09-11T01:41:03.282Z,39.17
2022-09-11T01:43:38.230Z,35.40
2022-09-11T01:46:11.154Z,35.43
2022-09-11T01:48:45.383Z,36.17
2022-09-11T01:51:18.106Z,38.70
2022-09-11T01:53:50.658Z,31.90
2022-09-11T01:56:23.364Z,36.77
2022-09-11T01:58:57.565Z,33.33
2022-09-11T02:01:30.095Z,39.97
2022-09-11T02:04:03.323Z,33.80
2022-09-11T02:06:35.834Z,33.07
2022-09-11T02:09:08.734Z,37.73
2022-09-11T02:11:41.277Z,41.23
2022-09-11T02:14:15.843Z,39.57
2022-09-11T02:16:49.232Z,40.28
2022-09-11T02:19:21.562Z,38.80
2022-09-11T02:21:53.563Z,39.13
2022-09-11T02:24:25.616Z,35.97
2022-09-11T02:26:58.282Z,35.40
2022-09-11T02:29:31.611Z,37.60
2022-09-11T02:32:03.800Z,37.42
2022-09-11T02:34:36.234Z,38.40
2022-09-11T02:37:14.269Z,34.80
2022-09-11T02:39:49.327Z,37.83
2022-09-11T02:42:33.368Z,40.40
2022-09-11T02:45:09.536Z,31.00
2022-09-11T02:47:43.225Z,40.40
2022-09-11T02:50:17.395Z,35.73
2022-09-11T02:52:49.877Z,37.00
2022-09-11T02:55:23.700Z,44.60
2022-09-11T02:57:56.613Z,39.03
2022-09-11T03:00:30.026Z,41.77
2022-09-11T03:03:02.069Z,43.13
2022-09-11T03:05:34.076Z,50.20
2022-09-11T03:08:06.071Z,38.23
2022-09-11T03:10:38.069Z,45.27
2022-09-11T03:13:10.076Z,44.25
2022-09-11T03:15:43.440Z,48.83
2022-09-11T03:18:15.424Z,46.77
2022-09-11T03:20:47.430Z,48.83
2022-09-11T03:23:19.411Z,56.60
2022-09-11T03:25:51.411Z,47.13
2022-09-11T03:28:23.417Z,49.23
2022-09-11T03:30:56.387Z,60.55
2022-09-11T03:33:28.020Z,58.07
2022-09-11T03:35:59.668Z,63.03
2022-09-11T03:38:31.293Z,60.00
2022-09-11T03:41:03.109Z,60.23
2022-09-11T03:43:34.932Z,57.83
2022-09-11T03:46:07.958Z,63.73
2022-09-11T03:48:39.654Z,62.33
2022-09-11T03:51:11.391Z,59.37
2022-09-11T03:53:43.529Z,59.07
2022-09-11T03:56:15.776Z,59.13
2022-09-11T03:58:47.761Z,59.13
2022-09-11T04:01:21.149Z,63.60
2022-09-11T04:03:53.151Z,55.20
2022-09-11T04:06:25.166Z,58.53
2022-09-11T04:08:57.152Z,65.43
2022-09-11T04:11:29.160Z,60.00
2022-09-11T04:14:02.700Z,53.33
2022-09-11T04:16:36.157Z,65.30
2022-09-11T04:19:08.227Z,54.47
2022-09-11T04:21:40.224Z,56.40
2022-09-11T04:24:12.257Z,56.93
2022-09-11T04:26:44.265Z,64.70
2022-09-11T04:29:16.257Z,69.80
2022-09-11T04:31:49.690Z,67.53
2022-09-11T04:34:21.758Z,66.95
2022-09-11T04:36:53.774Z,61.97
2022-09-11T04:39:25.843Z,63.00
2022-09-11T04:41:57.909Z,64.67
2022-09-11T04:44:29.916Z,62.73
2022-09-11T04:47:03.312Z,63.40
2022-09-11T04:49:35.321Z,61.27
2022-09-11T04:52:07.329Z,64.13
2022-09-11T04:54:39.345Z,61.93
2022-09-11T04:57:11.333Z,62.67
2022-09-11T04:59:43.345Z,62.13
2022-09-11T05:02:16.715Z,59.03
2022-09-11T05:04:48.770Z,64.30
2022-09-11T05:07:20.813Z,63.10
2022-09-11T05:09:52.813Z,65.87
2022-09-11T05:12:24.803Z,82.50
2022-09-11T05:14:57.868Z,108.10
2022-09-11T05:17:31.204Z,106.43
2022-09-11T05:20:03.511Z,127.67
2022-09-11T05:22:35.507Z,149.02
2022-09-11T05:25:07.799Z,137.73
2022-09-11T05:27:39.805Z,146.23
2022-09-11T05:30:12.332Z,138.97
2022-09-11T05:32:45.663Z,141.07
2022-09-11T05:35:17.669Z,156.90
2022-09-11T05:37:49.651Z,146.87
2022-09-11T05:40:21.661Z,132.40
2022-09-11T05:42:53.650Z,137.60
2022-09-11T05:45:25.702Z,146.80
